Time;durP1;ratioP1;P1;durP2;ratioP2;P2;SDS_P1;SDS_P2;PMS_P1;PMS_P2;Temp;Humidity;BMP_temperature;BMP_pressure;BME280_temperature;BME280_humidity;BME280_pressure;Samples;Min_cycle;Max_cycle;Signal;HPM_P1;HPM_P2
2021/01/04 00:00:51;;;;;;;16.33;10.73;;;;;;;19.58;43.84;100954.84;5016068;28;20033;-72
2021/01/04 00:03:55;;;;;;;14.15;11.38;;;;;;;19.54;43.92;100963.81;5015525;28;20120;-73
2021/01/04 00:06:45;;;;;;;20.30;10.70;;;;;;;19.55;43.69;100959.41;5015348;28;20044;-73
2021/01/04 00:09:25;;;;;;;13.18;10.40;;;;;;;19.59;43.75;100950.38;5029370;28;20041;-71
2021/01/04 00:12:02;;;;;;;13.10;10.48;;;;;;;19.58;43.76;100961.91;5030172;28;20048;-72
2021/01/04 00:14:46;;;;;;;15.35;10.63;;;;;;;19.62;43.70;100950.22;5033848;28;20075;-74
2021/01/04 00:17:44;;;;;;;14.10;10.45;;;;;;;19.60;43.69;100957.41;5032304;28;20041;-70
2021/01/04 00:20:29;;;;;;;17.33;10.38;;;;;;;19.58;43.68;100953.94;5031127;28;20081;-70
2021/01/04 00:23:38;;;;;;;12.27;9.63;;;;;;;19.55;43.75;100949.63;5031289;28;20048;-73
2021/01/04 00:26:13;;;;;;;14.13;9.70;;;;;;;19.56;43.81;100959.31;5032470;28;20033;-72
2021/01/04 00:28:40;;;;;;;17.38;10.65;;;;;;;19.54;43.90;100955.00;5030534;28;20272;-71
2021/01/04 00:31:21;;;;;;;13.25;9.90;;;;;;;19.54;43.68;100955.84;5031032;28;20072;-73
2021/01/04 00:34:00;;;;;;;13.40;9.77;;;;;;;19.53;43.71;100958.59;5030009;28;20034;-73
2021/01/04 00:37:08;;;;;;;15.80;10.45;;;;;;;19.56;43.63;100959.31;5033136;28;20522;-73
2021/01/04 00:39:49;;;;;;;14.93;10.35;;;;;;;19.55;43.62;100967.38;5034805;28;20040;-71
2021/01/04 00:42:47;;;;;;;12.10;9.40;;;;;;;19.56;43.52;100963.78;5031759;28;20061;-71
2021/01/04 00:45:28;;;;;;;14.02;9.60;;;;;;;19.58;43.56;100948.63;5028839;28;20033;-71
2021/01/04 00:48:29;;;;;;;10.57;9.07;;;;;;;19.56;43.29;100948.72;5036723;28;20203;-72
2021/01/04 00:51:24;;;;;;;17.65;10.07;;;;;;;19.58;43.54;100954.84;5019328;28;20053;-74
2021/01/04 00:53:51;;;;;;;13.93;10.98;;;;;;;19.54;43.67;100963.81;5024752;28;20107;-73
2021/01/04 00:56:42;;;;;;;11.75;8.48;;;;;;;19.55;43.43;100962.06;5038752;28;20059;-74
2021/01/04 00:59:30;;;;;;;15.82;10.50;;;;;;;19.54;43.49;100955.00;5037338;28;20034;-72
2021/01/04 01:02:37;;;;;;;11.80;8.93;;;;;;;19.55;43.62;100964.72;5035378;28;20048;-72
2021/01/04 01:05:23;;;;;;;12.18;8.68;;;;;;;19.54;43.53;100955.00;5037251;28;20150;-74
2021/01/04 01:08:14;;;;;;;13.38;9.32;;;;;;;19.54;43.43;100947.91;5019526;28;20045;-73
2021/01/04 01:11:23;;;;;;;12.68;8.95;;;;;;;19.56;43.76;100947.84;5038028;28;20124;-72
2021/01/04 01:14:25;;;;;;;12.40;9.15;;;;;;;19.55;43.58;100962.06;4992986;28;20052;-73
2021/01/04 01:17:38;;;;;;;12.35;9.10;;;;;;;19.54;43.65;100963.81;5036106;28;20040;-72
2021/01/04 01:20:08;;;;;;;11.15;8.63;;;;;;;19.53;43.68;100956.81;5020023;28;20048;-70
2021/01/04 01:22:41;;;;;;;11.30;8.70;;;;;;;19.55;43.40;100962.91;5035795;28;20112;-71
2021/01/04 01:25:12;;;;;;;11.63;9.48;;;;;;;19.51;43.53;100964.81;5038314;28;20530;-71
2021/01/04 01:28:19;;;;;;;10.73;7.95;;;;;;;19.53;43.51;100967.44;5036981;28;20041;-73
2021/01/04 01:31:07;;;;;;;9.80;8.38;;;;;;;19.54;43.52;100965.63;5037152;28;20383;-72
2021/01/04 01:33:51;;;;;;;10.35;8.40;;;;;;;19.53;43.47;100966.56;5035793;28;20175;-73
2021/01/04 01:36:40;;;;;;;14.57;8.73;;;;;;;19.55;43.50;100970.88;5038391;28;20361;-73
2021/01/04 01:39:29;;;;;;;10.68;8.70;;;;;;;19.56;43.50;100980.56;5039040;28;20037;-72
2021/01/04 01:42:24;;;;;;;11.18;7.93;;;;;;;19.55;43.27;100977.97;5035206;28;20041;-71
2021/01/04 01:45:26;;;;;;;10.15;7.03;;;;;;;19.53;43.52;100979.81;5037233;28;20584;-73
2021/01/04 01:48:08;;;;;;;8.98;7.63;;;;;;;19.53;43.60;100980.72;5038611;28;20041;-72
2021/01/04 01:50:59;;;;;;;9.70;7.30;;;;;;;19.50;42.69;100987.00;5037072;28;20053;-75
2021/01/04 01:53:49;;;;;;;8.20;6.20;;;;;;;19.56;41.55;100983.22;5034697;28;20044;-73
2021/01/04 01:56:50;;;;;;;6.22;5.60;;;;;;;19.53;40.24;100978.06;5037619;28;20101;-73
2021/01/04 02:00:11;;;;;;;5.63;4.35;;;;;;;19.50;39.20;100983.47;5037010;28;20566;-72
2021/01/04 02:03:06;;;;;;;3.55;3.25;;;;;;;19.49;38.04;100976.47;5037706;28;20044;-73
2021/01/04 02:06:05;;;;;;;3.63;3.33;;;;;;;19.46;37.62;100982.75;5034881;28;20041;-73
2021/01/04 02:08:41;;;;;;;3.05;2.55;;;;;;;19.45;36.91;100986.34;5038626;28;20052;-73
2021/01/04 02:11:17;;;;;;;2.65;2.30;;;;;;;19.40;36.84;100985.66;5032848;28;20565;-69
2021/01/04 02:14:36;;;;;;;3.50;3.17;;;;;;;19.37;36.69;100982.25;5037600;28;20115;-71
2021/01/04 02:17:18;;;;;;;2.70;2.50;;;;;;;19.33;36.41;100985.03;5016368;28;20495;-74
2021/01/04 02:20:29;;;;;;;3.83;2.85;;;;;;;19.31;35.77;100975.41;5037227;28;20506;-75
2021/01/04 02:23:28;;;;;;;2.33;2.13;;;;;;;19.31;35.19;100983.38;5017862;28;20089;-71
2021/01/04 02:25:58;;;;;;;2.13;1.92;;;;;;;19.23;35.36;100982.78;5018425;28;20048;-70
2021/01/04 02:28:31;;;;;;;2.47;2.28;;;;;;;19.25;34.91;100984.47;5024732;28;20033;-72
2021/01/04 02:30:58;;;;;;;2.30;2.10;;;;;;;19.20;35.16;100983.78;5034224;28;20239;-73
2021/01/04 02:33:23;;;;;;;2.15;1.95;;;;;;;19.16;34.67;100976.88;5034994;28;20045;-74
2021/01/04 02:35:49;;;;;;;2.53;2.33;;;;;;;19.14;34.61;100984.06;5035794;28;20037;-72
2021/01/04 02:38:24;;;;;;;2.95;2.10;;;;;;;19.12;34.52;100969.97;5037919;28;20127;-73
2021/01/04 02:40:50;;;;;;;2.13;2.00;;;;;;;19.08;34.95;100971.03;5036927;28;20052;-72
2021/01/04 02:43:16;;;;;;;1.90;1.80;;;;;;;19.05;34.59;100979.09;5034536;28;20124;-71
2021/01/04 02:45:41;;;;;;;2.20;2.03;;;;;;;19.04;34.48;100980.88;5031340;28;20645;-74
2021/01/04 02:48:27;;;;;;;2.88;2.60;;;;;;;18.99;34.58;100975.78;5034415;28;20036;-73
2021/01/04 02:51:23;;;;;;;2.05;1.88;;;;;;;19.01;34.18;100981.00;5034845;28;20047;-72
2021/01/04 02:53:58;;;;;;;1.63;1.52;;;;;;;18.95;34.15;100976.78;5037156;28;20681;-72
2021/01/04 02:56:47;;;;;;;2.42;2.30;;;;;;;18.94;34.54;100972.44;5035951;28;20038;-73
2021/01/04 02:59:42;;;;;;;2.75;2.22;;;;;;;18.89;34.02;100973.47;5036197;28;20049;-72
2021/01/04 03:02:15;;;;;;;2.03;1.92;;;;;;;18.89;33.92;100970.81;5032161;28;20257;-72
2021/01/04 03:04:42;;;;;;;2.35;2.15;;;;;;;18.82;34.08;100972.84;5034200;28;20637;-72
2021/01/04 03:07:16;;;;;;;1.85;1.75;;;;;;;18.82;33.77;100978.16;5036329;28;20086;-72
2021/01/04 03:09:49;;;;;;;2.88;2.17;;;;;;;18.80;33.78;100975.56;5035613;28;20372;-73
2021/01/04 03:12:29;;;;;;;2.23;2.03;;;;;;;18.78;33.65;100976.56;5031893;28;20040;-73
2021/01/04 03:15:14;;;;;;;2.22;2.03;;;;;;;18.75;33.37;100972.22;5032688;28;20107;-74
2021/01/04 03:17:58;;;;;;;1.95;1.77;;;;;;;18.74;34.01;100972.28;5032944;28;20526;-72
2021/01/04 03:20:25;;;;;;;1.90;1.80;;;;;;;18.70;33.45;100979.50;5052356;28;20044;-72
2021/01/04 03:22:53;;;;;;;2.92;2.05;;;;;;;18.65;33.58;100977.00;5032154;28;20264;-70
2021/01/04 03:25:53;;;;;;;2.00;1.90;;;;;;;18.61;33.14;100972.75;5025087;28;20467;-73
2021/01/04 03:28:26;;;;;;;1.80;1.75;;;;;;;18.63;33.23;100973.56;5033988;28;20033;-70
2021/01/04 03:30:53;;;;;;;1.77;1.67;;;;;;;18.60;33.27;100967.50;5034148;28;20037;-70
2021/01/04 03:33:20;;;;;;;2.22;2.03;;;;;;;18.56;33.27;100968.53;5034902;28;20960;-74
2021/01/04 03:35:46;;;;;;;1.90;1.80;;;;;;;18.55;33.20;100967.69;5034677;28;20933;-71
2021/01/04 03:38:13;;;;;;;2.03;1.92;;;;;;;18.54;33.29;100967.72;5034130;28;20040;-72
2021/01/04 03:40:40;;;;;;;2.30;2.03;;;;;;;18.51;33.29;100971.34;5014836;28;20103;-73
2021/01/04 03:43:06;;;;;;;1.83;1.73;;;;;;;18.49;33.13;100970.56;5033883;28;20052;-73
2021/01/04 03:45:31;;;;;;;2.33;2.22;;;;;;;18.46;33.06;100963.59;5035071;28;20033;-72
2021/01/04 03:47:57;;;;;;;1.83;1.73;;;;;;;18.45;33.40;100968.94;5032619;28;20045;-74
2021/01/04 03:50:23;;;;;;;1.90;1.77;;;;;;;18.45;33.17;100968.94;5037290;28;22239;-68
2021/01/04 03:52:49;;;;;;;2.50;2.30;;;;;;;18.39;33.11;100963.88;5034739;28;20041;-72
2021/01/04 03:55:16;;;;;;;2.13;2.03;;;;;;;18.40;33.34;100962.94;5037428;28;20075;-75
2021/01/04 03:57:43;;;;;;;2.10;2.00;;;;;;;18.38;33.19;100967.44;5036153;28;20041;-72
2021/01/04 04:00:15;;;;;;;2.60;2.42;;;;;;;18.35;33.38;100971.06;5034018;28;20037;-72
2021/01/04 04:02:42;;;;;;;2.05;1.90;;;;;;;18.33;32.98;100964.97;5032942;28;20041;-73
2021/01/04 04:05:09;;;;;;;2.00;1.80;;;;;;;18.32;33.08;100964.09;5037485;28;20700;-72
2021/01/04 04:07:35;;;;;;;2.83;2.40;;;;;;;18.31;35.92;100967.66;5035835;28;20064;-70
2021/01/04 04:10:01;;;;;;;2.30;2.10;;;;;;;18.30;36.80;100970.34;5034338;28;20099;-76
2021/01/04 04:12:27;;;;;;;2.38;2.17;;;;;;;18.29;37.41;100974.81;5014964;28;20032;-76
2021/01/04 04:14:52;;;;;;;2.33;2.10;;;;;;;18.31;37.81;100969.44;5032755;28;20072;-71
2021/01/04 04:17:19;;;;;;;2.75;2.55;;;;;;;18.29;38.02;100969.50;5034884;28;20037;-72
2021/01/04 04:19:47;;;;;;;2.80;2.28;;;;;;;18.30;38.73;100971.25;5036013;28;20094;-72
2021/01/04 04:22:13;;;;;;;1.90;1.70;;;;;;;18.33;38.77;100962.31;5029281;28;20445;-71
2021/01/04 04:24:44;;;;;;;2.25;2.13;;;;;;;18.31;38.88;100970.28;5038641;28;20111;-71
2021/01/04 04:27:10;;;;;;;2.83;2.63;;;;;;;18.33;39.12;100971.13;5022298;28;20065;-71
2021/01/04 04:29:43;;;;;;;2.63;2.10;;;;;;;18.33;39.38;100972.91;5022582;28;20542;-73
2021/01/04 04:32:09;;;;;;;2.33;2.20;;;;;;;18.33;39.81;100970.28;5034123;28;20044;-72
2021/01/04 04:34:36;;;;;;;3.10;2.80;;;;;;;18.31;39.47;100975.59;5042267;28;20132;-75
2021/01/04 04:37:05;;;;;;;2.33;2.22;;;;;;;18.33;39.96;100968.47;5031594;28;20444;-72
2021/01/04 04:39:30;;;;;;;2.25;2.15;;;;;;;18.33;39.99;100970.28;5017500;28;20045;-73
2021/01/04 04:41:56;;;;;;;1.80;1.70;;;;;;;18.33;40.20;100968.47;5013405;28;20060;-73
2021/01/04 04:44:53;;;;;;;3.55;2.30;;;;;;;18.37;40.13;100966.59;5034990;28;20037;-75
2021/01/04 04:47:52;;;;;;;2.25;2.05;;;;;;;18.35;40.52;100966.63;5019373;28;20640;-74
2021/01/04 04:50:54;;;;;;;2.50;2.30;;;;;;;18.36;40.31;100970.16;5036432;28;20041;-74
2021/01/04 04:53:50;;;;;;;2.42;2.22;;;;;;;18.38;40.63;100978.03;5030169;28;20072;-75
2021/01/04 04:56:53;;;;;;;2.78;2.58;;;;;;;18.37;40.74;100973.66;5033076;28;20033;-74
2021/01/04 04:59:36;;;;;;;2.78;2.58;;;;;;;18.38;40.85;100981.53;5035609;28;20045;-74
2021/01/04 05:02:24;;;;;;;2.47;2.28;;;;;;;18.35;41.24;100979.91;5031700;28;20060;-72
2021/01/04 05:05:11;;;;;;;3.17;2.88;;;;;;;18.38;41.32;100986.84;5035527;28;20112;-74
2021/01/04 05:07:54;;;;;;;2.65;2.45;;;;;;;18.37;41.38;100987.78;5035009;28;20221;-73
2021/01/04 05:10:34;;;;;;;3.17;2.88;;;;;;;18.38;41.23;100980.69;5031346;28;20049;-72
2021/01/04 05:13:29;;;;;;;2.38;2.17;;;;;;;18.37;41.39;100977.19;5030533;28;20054;-73
2021/01/04 05:16:10;;;;;;;2.88;2.70;;;;;;;18.38;41.32;100978.88;5027429;28;20060;-73
2021/01/04 05:19:04;;;;;;;2.67;2.47;;;;;;;18.41;41.62;100984.09;5036495;28;20352;-69
2021/01/04 05:22:02;;;;;;;3.13;2.55;;;;;;;18.40;41.48;100971.75;5033849;28;20060;-74
2021/01/04 05:24:53;;;;;;;2.25;2.10;;;;;;;18.39;41.72;100979.78;5016303;28;20041;-71
2021/01/04 05:27:50;;;;;;;3.03;2.75;;;;;;;18.41;41.51;100976.16;5036285;28;20168;-69
2021/01/04 05:31:00;;;;;;;3.25;3.00;;;;;;;18.41;41.82;100984.09;5032665;28;20047;-74
2021/01/04 05:33:50;;;;;;;3.30;3.00;;;;;;;18.40;41.77;100973.56;5019497;28;20064;-70
2021/01/04 05:36:27;;;;;;;2.92;2.70;;;;;;;18.40;41.60;100982.34;5032504;28;20871;-71
2021/01/04 05:39:28;;;;;;;3.25;3.05;;;;;;;18.41;42.01;100989.41;5041619;28;20049;-70
2021/01/04 05:42:27;;;;;;;2.90;2.70;;;;;;;18.40;41.93;100982.34;5035634;28;20048;-76
2021/01/04 05:45:58;;;;;;;3.70;2.85;;;;;;;18.42;41.72;100979.66;5036920;28;20029;-75
2021/01/04 05:49:06;;;;;;;2.70;2.50;;;;;;;18.41;41.88;100980.56;5011591;28;20073;-70
2021/01/04 05:51:45;;;;;;;3.20;2.90;;;;;;;18.41;41.89;100989.41;5038493;28;20043;-71
2021/01/04 05:54:12;;;;;;;3.63;3.28;;;;;;;18.42;42.14;100983.19;5035535;28;20037;-72
2021/01/04 05:56:39;;;;;;;2.88;2.67;;;;;;;18.43;42.09;100981.38;5036770;28;20711;-71
2021/01/04 05:59:15;;;;;;;2.95;2.72;;;;;;;18.44;42.28;100986.63;5036914;28;20063;-73
2021/01/04 06:01:44;;;;;;;3.50;3.20;;;;;;;18.43;42.10;100981.38;5034534;28;20501;-73
2021/01/04 06:04:24;;;;;;;3.03;2.83;;;;;;;18.44;42.19;100983.97;5037256;28;20124;-73
2021/01/04 06:06:52;;;;;;;3.38;2.78;;;;;;;18.46;42.61;100982.13;5037333;28;20040;-75
2021/01/04 06:09:19;;;;;;;3.35;3.15;;;;;;;18.44;42.52;100983.97;5039198;28;20507;-74
2021/01/04 06:12:12;;;;;;;3.75;3.42;;;;;;;18.46;42.10;100971.53;5018968;28;20067;-74
2021/01/04 06:14:38;;;;;;;3.77;3.47;;;;;;;18.48;42.65;100974.13;5017788;28;20037;-74
2021/01/04 06:17:09;;;;;;;3.15;2.80;;;;;;;18.49;43.11;100981.16;5034639;28;20045;-73
2021/01/04 06:19:40;;;;;;;3.80;2.85;;;;;;;18.50;42.72;100980.25;5021812;28;20040;-70
2021/01/04 06:22:18;;;;;;;5.32;3.00;;;;;;;18.51;42.58;100972.25;5033949;28;20272;-73
2021/01/04 06:24:46;;;;;;;4.28;2.85;;;;;;;18.52;43.67;100975.75;5033747;28;20698;-69
2021/01/04 06:27:40;;;;;;;2.95;2.72;;;;;;;18.57;42.03;100975.59;5033731;28;20068;-71
2021/01/04 06:30:34;;;;;;;4.00;3.00;;;;;;;18.59;43.28;100977.25;5034929;28;20131;-73
2021/01/04 06:33:21;;;;;;;5.32;3.55;;;;;;;18.60;42.68;100972.81;5036324;28;20040;-71
2021/01/04 06:35:47;;;;;;;3.13;2.83;;;;;;;18.58;41.67;100979.97;5024515;28;20075;-70
2021/01/04 06:38:25;;;;;;;3.92;2.90;;;;;;;18.62;41.59;100981.59;5034354;28;20495;-69
2021/01/04 06:40:51;;;;;;;3.67;3.38;;;;;;;18.65;41.64;100982.31;5016268;28;20059;-72
2021/01/04 06:43:35;;;;;;;3.40;3.10;;;;;;;18.66;41.97;100994.66;5033952;28;20487;-69
2021/01/04 06:46:25;;;;;;;4.30;3.60;;;;;;;18.68;42.09;100994.59;5035924;28;20129;-71
2021/01/04 06:49:09;;;;;;;3.88;3.58;;;;;;;18.67;42.11;100996.38;5033906;28;20041;-71
2021/01/04 06:52:24;;;;;;;4.30;3.88;;;;;;;18.70;42.26;100997.19;5018616;28;20041;-69
2021/01/04 06:55:11;;;;;;;3.55;3.25;;;;;;;18.72;42.17;100998.88;5034007;28;20041;-69
2021/01/04 06:58:04;;;;;;;6.88;3.72;;;;;;;18.76;42.06;101007.56;5035906;28;20048;-72
2021/01/04 07:01:11;;;;;;;5.13;3.40;;;;;;;18.78;42.04;101008.38;5034005;28;20036;-72
2021/01/04 07:03:46;;;;;;;4.22;3.38;;;;;;;18.78;42.28;101011.03;5031338;28;20132;-73
2021/01/04 07:06:49;;;;;;;4.78;3.30;;;;;;;18.80;42.41;101009.19;5033150;28;20040;-73
2021/01/04 07:09:37;;;;;;;7.07;3.80;;;;;;;18.81;42.41;101008.25;5037943;28;20503;-70
2021/01/04 07:12:29;;;;;;;4.50;3.55;;;;;;;18.82;42.48;101004.69;5014158;28;20045;-71
2021/01/04 07:15:28;;;;;;;3.85;3.30;;;;;;;18.86;42.40;101008.94;5035767;28;20029;-72
2021/01/04 07:18:24;;;;;;;3.83;3.40;;;;;;;18.86;42.29;101011.59;5034774;28;20115;-73
2021/01/04 07:20:56;;;;;;;5.07;3.45;;;;;;;18.88;42.36;101020.38;5014940;28;20076;-73
2021/01/04 07:23:43;;;;;;;5.30;3.55;;;;;;;18.92;42.37;101018.50;5019411;28;20033;-72
2021/01/04 07:26:39;;;;;;;4.45;3.42;;;;;;;18.93;42.33;101022.88;5033385;28;20036;-69
2021/01/04 07:29:13;;;;;;;4.68;4.05;;;;;;;18.93;42.65;101023.75;5021574;28;20037;-70
2021/01/04 07:31:48;;;;;;;4.20;3.83;;;;;;;18.94;42.64;101022.84;5034201;28;20152;-72
2021/01/04 07:34:26;;;;;;;4.68;3.55;;;;;;;18.96;42.48;101026.28;5018360;28;20128;-73
2021/01/04 07:36:55;;;;;;;3.95;3.63;;;;;;;18.96;42.80;101023.63;5033533;28;20048;-73
2021/01/04 07:39:49;;;;;;;4.07;3.65;;;;;;;18.99;42.80;101033.25;5035391;28;20053;-72
2021/01/04 07:42:56;;;;;;;3.03;2.83;;;;;;;19.00;42.80;101024.38;5031927;28;20032;-73
2021/01/04 07:45:56;;;;;;;3.35;3.05;;;;;;;19.00;42.92;101027.88;5033932;28;20053;-71
2021/01/04 07:49:18;;;;;;;3.70;3.05;;;;;;;19.02;42.85;101025.19;5031677;28;20041;-73
2021/01/04 07:51:53;;;;;;;4.50;3.30;;;;;;;19.02;42.65;101025.19;5041642;28;20128;-71
2021/01/04 07:55:23;;;;;;;3.40;3.20;;;;;;;19.04;43.50;101027.78;5033346;28;20048;-71
2021/01/04 07:58:26;;;;;;;3.53;3.20;;;;;;;19.03;43.29;101028.69;5017731;28;20048;-71
2021/01/04 08:01:13;;;;;;;3.88;3.55;;;;;;;19.01;43.50;101034.94;5033309;28;20044;-73
2021/01/04 08:04:03;;;;;;;3.42;3.10;;;;;;;19.03;43.54;101032.22;5033453;28;20045;-73
2021/01/04 08:07:14;;;;;;;3.03;2.58;;;;;;;19.03;43.51;101032.22;5033556;28;20130;-72
2021/01/04 08:10:28;;;;;;;3.00;2.78;;;;;;;19.06;43.84;101033.88;5035929;28;20044;-74
2021/01/04 08:13:40;;;;;;;3.70;3.35;;;;;;;19.05;43.42;101038.34;5016948;28;20087;-68
2021/01/04 08:16:13;;;;;;;2.67;2.47;;;;;;;19.07;43.58;101036.47;5034079;28;20029;-73
2021/01/04 08:18:42;;;;;;;2.97;2.78;;;;;;;19.07;43.43;101040.91;5033716;28;20037;-70
2021/01/04 08:21:33;;;;;;;3.33;3.03;;;;;;;19.08;43.57;101037.34;5035658;28;20080;-73
2021/01/04 08:24:38;;;;;;;3.53;2.42;;;;;;;19.06;43.60;101042.72;5034043;28;20421;-73
2021/01/04 08:27:32;;;;;;;2.97;2.67;;;;;;;19.09;42.84;101044.41;5033308;28;20033;-73
2021/01/04 08:30:11;;;;;;;2.70;2.50;;;;;;;19.09;42.63;101044.41;5033473;28;20064;-74
2021/01/04 08:32:58;;;;;;;3.08;2.88;;;;;;;19.12;42.28;101045.13;5035337;28;20140;-70
2021/01/04 08:35:27;;;;;;;2.88;2.67;;;;;;;19.12;42.40;101050.44;5034235;28;20369;-72
2021/01/04 08:37:55;;;;;;;3.05;2.67;;;;;;;19.14;42.29;101050.38;5035309;28;20065;-72
2021/01/04 08:40:34;;;;;;;3.35;2.42;;;;;;;19.16;42.15;101054.72;5001456;28;20083;-76
2021/01/04 08:43:08;;;;;;;1.90;1.80;;;;;;;18.77;35.65;101062.34;5015199;28;20111;-71
2021/01/04 08:45:45;;;;;;;2.33;2.22;;;;;;;19.08;40.09;101061.22;5001475;28;21637;-71
2021/01/04 08:48:34;;;;;;;2.65;2.22;;;;;;;19.09;41.39;101069.13;5006943;28;20041;-70
2021/01/04 08:51:26;;;;;;;4.10;2.55;;;;;;;19.08;41.74;101066.53;5018347;28;20112;-71
2021/01/04 08:54:03;;;;;;;7.25;2.67;;;;;;;19.11;41.79;101062.00;5032094;28;20063;-71
2021/01/04 08:56:40;;;;;;;3.70;2.53;;;;;;;19.10;42.96;101065.56;5035199;28;20044;-71
2021/01/04 08:59:13;;;;;;;2.50;2.03;;;;;;;19.11;42.07;101061.09;5032054;28;20139;-72
2021/01/04 09:01:54;;;;;;;;;;;;;;;19.14;41.96;101063.66;5019443;28;20168;-71
2021/01/04 09:04:35;;;;;;;4.25;2.10;;;;;;;19.15;41.94;101054.75;5018016;28;19965;-73
2021/01/04 09:07:17;;;;;;;2.15;1.95;;;;;;;19.13;41.68;101056.63;5031227;28;20058;-72
2021/01/04 09:10:03;;;;;;;3.40;2.50;;;;;;;19.14;41.78;101050.38;5031236;28;20029;-72
2021/01/04 09:12:42;;;;;;;2.58;2.03;;;;;;;19.15;41.67;101058.28;5015217;28;20342;-71
2021/01/04 09:15:23;;;;;;;2.10;1.90;;;;;;;19.18;41.54;101054.66;5016754;28;20037;-72
2021/01/04 09:18:30;;;;;;;3.47;2.72;;;;;;;19.21;41.49;101056.31;5036575;28;20080;-72
2021/01/04 09:21:19;;;;;;;2.15;1.95;;;;;;;19.22;41.30;101061.56;5033039;28;20072;-70
2021/01/04 09:23:45;;;;;;;2.33;2.13;;;;;;;19.22;41.32;101056.25;5037609;28;20033;-71
2021/01/04 09:26:28;;;;;;;3.90;2.63;;;;;;;19.24;41.48;101058.84;5035789;28;20047;-71
2021/01/04 09:29:12;;;;;;;2.70;2.50;;;;;;;19.24;41.35;101064.16;5036242;28;20036;-69
2021/01/04 09:31:49;;;;;;;;;;;;;;;19.26;41.19;101065.81;5033649;28;20037;-73
2021/01/04 09:34:17;;;;;;;2.95;2.03;;;;;;;19.25;41.60;101066.75;5021100;28;19966;-72
2021/01/04 09:36:43;;;;;;;3.25;2.28;;;;;;;19.25;41.36;101066.75;5002197;28;20961;-70
2021/01/04 09:39:12;;;;;;;2.17;1.98;;;;;;;19.25;41.45;101063.25;5034336;28;20052;-71
2021/01/04 09:41:41;;;;;;;3.45;2.40;;;;;;;19.27;41.34;101070.22;5043957;28;20528;-71
2021/01/04 09:44:13;;;;;;;2.15;2.03;;;;;;;19.27;41.46;101058.75;5037069;28;20036;-68
2021/01/04 09:46:51;;;;;;;2.13;2.03;;;;;;;19.29;41.36;101070.16;5052887;28;20060;-71
2021/01/04 09:49:29;;;;;;;2.90;2.67;;;;;;;19.28;41.42;101077.25;5017910;28;20507;-70
2021/01/04 09:52:03;;;;;;;1.98;1.85;;;;;;;19.27;41.41;101064.91;5033924;28;20048;-70
2021/01/04 09:54:38;;;;;;;2.67;1.88;;;;;;;19.29;41.62;101071.00;5033450;28;20051;-72
2021/01/04 09:57:07;;;;;;;2.67;1.95;;;;;;;19.33;41.70;101067.34;5033986;28;20021;-71
2021/01/04 09:59:40;;;;;;;3.58;2.05;;;;;;;19.40;41.69;101070.59;5034768;28;20525;-73
2021/01/04 10:02:17;;;;;;;3.65;2.00;;;;;;;19.42;41.77;101074.06;5032831;28;20048;-72
2021/01/04 10:04:43;;;;;;;2.30;2.10;;;;;;;19.39;41.75;101068.03;5019642;28;20468;-72
2021/01/04 10:07:16;;;;;;;4.60;2.10;;;;;;;19.38;42.18;101071.59;5034172;28;20052;-70
2021/01/04 10:09:47;;;;;;;6.05;2.08;;;;;;;19.45;42.24;101070.41;5017615;28;20715;-73
2021/01/04 10:12:20;;;;;;;2.40;2.20;;;;;;;19.41;42.04;101064.38;5018088;28;20098;-74
2021/01/04 10:14:46;;;;;;;1.95;1.80;;;;;;;19.45;41.95;101065.09;5037293;28;20033;-73
2021/01/04 10:17:12;;;;;;;4.85;2.63;;;;;;;19.46;42.51;101061.53;5035902;28;20040;-75
2021/01/04 10:19:55;;;;;;;6.22;1.92;;;;;;;19.52;43.79;101063.94;5020779;28;20451;-75
2021/01/04 10:22:38;;;;;;;1.65;1.50;;;;;;;19.58;41.89;101070.78;5031539;28;20049;-76
2021/01/04 10:25:18;;;;;;;1.90;1.60;;;;;;;19.60;41.73;101068.94;5004021;28;20029;-70
2021/01/04 10:27:44;;;;;;;1.75;1.65;;;;;;;19.58;41.64;101069.03;5038878;28;20271;-69
2021/01/04 10:30:14;;;;;;;2.55;1.88;;;;;;;19.58;41.56;101069.03;5020373;28;20090;-71
2021/01/04 10:32:41;;;;;;;4.53;1.95;;;;;;;19.60;41.57;101072.47;5001675;28;20040;-70
2021/01/04 10:35:23;;;;;;;2.22;2.10;;;;;;;19.63;41.39;101068.81;5035999;28;20056;-71
2021/01/04 10:38:02;;;;;;;4.55;2.05;;;;;;;19.60;41.79;101066.28;5038006;28;20048;-72
2021/01/04 10:40:28;;;;;;;2.05;1.90;;;;;;;19.60;41.24;101060.97;5034525;28;20720;-69
2021/01/04 10:43:03;;;;;;;2.85;1.63;;;;;;;19.63;41.29;101058.19;5033869;28;20048;-69
2021/01/04 10:45:39;;;;;;;2.17;1.98;;;;;;;19.60;41.48;101053.88;5015140;28;20466;-71
2021/01/04 10:48:17;;;;;;;2.63;1.98;;;;;;;19.60;41.49;101048.56;5020073;28;20064;-72
2021/01/04 10:50:49;;;;;;;2.47;1.58;;;;;;;19.60;41.52;101053.00;5015270;28;20105;-71
2021/01/04 10:53:40;;;;;;;3.85;1.77;;;;;;;19.60;41.55;101043.25;5035676;28;20518;-70
2021/01/04 10:56:15;;;;;;;1.55;1.45;;;;;;;19.58;41.63;101044.22;5031893;28;20494;-72
2021/01/04 10:58:51;;;;;;;2.72;1.40;;;;;;;19.63;41.63;101042.25;5035816;28;20060;-70
2021/01/04 11:01:20;;;;;;;2.78;1.75;;;;;;;19.61;41.61;101044.13;5033476;28;20033;-70
2021/01/04 11:03:56;;;;;;;1.95;1.85;;;;;;;19.61;41.51;101047.63;5037632;28;20476;-69
2021/01/04 11:06:33;;;;;;;3.90;1.50;;;;;;;19.60;41.70;101050.34;5012084;28;20044;-71
2021/01/04 11:09:15;;;;;;;2.55;1.73;;;;;;;19.64;41.47;101044.00;5035561;28;20086;-71
2021/01/04 11:11:48;;;;;;;3.00;1.65;;;;;;;19.62;41.70;101038.75;5036253;28;20033;-71
2021/01/04 11:14:23;;;;;;;1.45;1.35;;;;;;;19.61;41.65;101038.81;5019553;28;20045;-71
2021/01/04 11:16:58;;;;;;;1.25;1.25;;;;;;;19.62;41.56;101038.75;5035868;28;20033;-72
2021/01/04 11:19:31;;;;;;;1.73;1.08;;;;;;;19.62;41.62;101033.44;5015529;28;20178;-70
2021/01/04 11:22:25;;;;;;;2.17;1.65;;;;;;;19.66;41.58;101036.84;5018221;28;20048;-69
2021/01/04 11:24:52;;;;;;;1.65;1.55;;;;;;;19.61;41.62;101033.50;5019941;28;20045;-72
2021/01/04 11:27:19;;;;;;;2.35;1.73;;;;;;;19.63;41.43;101027.22;5042978;28;20033;-68
2021/01/04 11:29:45;;;;;;;2.85;1.55;;;;;;;19.60;41.78;101032.63;5017322;28;20041;-71
2021/01/04 11:32:13;;;;;;;2.95;1.70;;;;;;;19.60;41.77;101037.09;4999311;28;20067;-71
2021/01/04 11:34:42;;;;;;;2.63;1.30;;;;;;;19.60;41.60;101029.97;5020809;28;20041;-71
2021/01/04 11:37:08;;;;;;;1.20;1.20;;;;;;;19.68;41.80;101032.31;5034408;28;20041;-70
2021/01/04 11:39:37;;;;;;;2.15;1.05;;;;;;;19.61;40.95;101022.88;5033488;28;20136;-73
2021/01/04 11:42:05;;;;;;;2.47;1.50;;;;;;;19.25;35.53;101026.94;5014408;28;20122;-73
2021/01/04 11:44:31;;;;;;;2.03;1.30;;;;;;;18.22;33.03;101022.78;5016734;28;20049;-75
2021/01/04 11:46:56;;;;;;;1.80;1.70;;;;;;;17.74;32.66;101029.66;5023636;28;20029;-75
2021/01/04 11:49:22;;;;;;;2.22;2.03;;;;;;;17.44;31.65;101021.78;5034142;28;20041;-75
2021/01/04 11:51:52;;;;;;;1.48;1.38;;;;;;;17.72;32.06;101023.53;5033412;28;20029;-74
2021/01/04 11:54:20;;;;;;;2.78;1.30;;;;;;;18.69;37.65;101009.59;5017313;28;20060;-74
2021/01/04 11:56:48;;;;;;;2.17;1.50;;;;;;;18.96;39.20;101015.66;5016788;28;20407;-74
2021/01/04 11:59:14;;;;;;;1.50;0.95;;;;;;;19.06;38.79;101013.53;5018683;28;20041;-72
2021/01/04 12:01:40;;;;;;;1.20;1.10;;;;;;;19.03;39.36;101003.03;5032017;28;20671;-73
2021/01/04 12:04:08;;;;;;;1.75;1.33;;;;;;;19.05;39.67;101008.28;5034522;28;20108;-70
2021/01/04 12:06:34;;;;;;;1.50;1.23;;;;;;;19.05;39.98;101011.81;5035702;28;20033;-73
2021/01/04 12:09:04;;;;;;;1.23;1.00;;;;;;;19.08;40.84;100998.41;5017657;28;20037;-76
2021/01/04 12:11:36;;;;;;;1.27;1.17;;;;;;;19.20;40.68;100997.06;5016787;28;20044;-74
2021/01/04 12:14:02;;;;;;;2.25;1.40;;;;;;;19.25;40.38;101003.03;5033669;28;20037;-75
2021/01/04 12:16:31;;;;;;;2.95;1.60;;;;;;;19.24;40.52;100995.16;5035702;28;20050;-78
2021/01/04 12:18:57;;;;;;;3.67;1.30;;;;;;;19.31;40.79;100986.88;5033835;28;20076;-76
2021/01/04 12:21:26;;;;;;;2.90;1.13;;;;;;;19.30;41.88;100987.81;5033470;28;20045;-75
2021/01/04 12:23:52;;;;;;;1.40;1.27;;;;;;;19.33;40.57;100993.00;5033227;28;20131;-71
2021/01/04 12:26:22;;;;;;;3.30;1.10;;;;;;;19.31;41.19;100988.69;5035017;28;20096;-74